sensor_id;sensor_type;location;lat;lon;timestamp;pressure;altitude;pressure_sealevel;temperature;humidity
12949;BME280;6539;49.476;8.484;2023-04-26T00:02:05;100681.16;;;11.76;43.67
12949;BME280;6539;49.476;8.484;2023-04-26T00:04:31;100689.41;;;11.76;43.63
12949;BME280;6539;49.476;8.484;2023-04-26T00:06:58;100691.03;;;11.70;43.83
12949;BME280;6539;49.476;8.484;2023-04-26T00:09:27;100694.16;;;11.65;44.11
12949;BME280;6539;49.476;8.484;2023-04-26T00:11:56;100687.13;;;11.64;44.14
12949;BME280;6539;49.476;8.484;2023-04-26T00:14:22;100685.97;;;11.62;44.31
12949;BME280;6539;49.476;8.484;2023-04-26T00:16:54;100687.91;;;11.61;44.55
12949;BME280;6539;49.476;8.484;2023-04-26T00:19:20;100686.38;;;11.60;44.32
12949;BME280;6539;49.476;8.484;2023-04-26T00:21:46;100697.38;;;11.60;44.39
12949;BME280;6539;49.476;8.484;2023-04-26T00:24:12;100695.47;;;11.54;44.55
12949;BME280;6539;49.476;8.484;2023-04-26T00:26:38;100694.28;;;11.51;44.77
12949;BME280;6539;49.476;8.484;2023-04-26T00:29:03;100702.16;;;11.49;45.00
12949;BME280;6539;49.476;8.484;2023-04-26T00:31:29;100697.44;;;11.49;44.86
12949;BME280;6539;49.476;8.484;2023-04-26T00:33:55;100699.41;;;11.49;45.04
12949;BME280;6539;49.476;8.484;2023-04-26T00:36:21;100692.75;;;11.46;44.95
12949;BME280;6539;49.476;8.484;2023-04-26T00:38:47;100687.25;;;11.46;45.00
12949;BME280;6539;49.476;8.484;2023-04-26T00:41:13;100688.03;;;11.47;45.02
12949;BME280;6539;49.476;8.484;2023-04-26T00:43:41;100690.41;;;11.45;45.38
12949;BME280;6539;49.476;8.484;2023-04-26T00:46:08;100690.00;;;11.46;45.53
12949;BME280;6539;49.476;8.484;2023-04-26T00:48:36;100688.84;;;11.44;45.17
12949;BME280;6539;49.476;8.484;2023-04-26T00:51:04;100695.53;;;11.39;45.36
12949;BME280;6539;49.476;8.484;2023-04-26T00:53:31;100694.00;;;11.35;45.92
12949;BME280;6539;49.476;8.484;2023-04-26T00:55:59;100693.63;;;11.33;45.65
12949;BME280;6539;49.476;8.484;2023-04-26T00:58:30;100692.06;;;11.28;46.04
12949;BME280;6539;49.476;8.484;2023-04-26T01:00:56;100701.91;;;11.26;45.92
12949;BME280;6539;49.476;8.484;2023-04-26T01:03:23;100699.97;;;11.23;46.21
12949;BME280;6539;49.476;8.484;2023-04-26T01:05:52;100691.34;;;11.21;46.13
12949;BME280;6539;49.476;8.484;2023-04-26T01:08:18;100703.91;;;11.22;46.26
12949;BME280;6539;49.476;8.484;2023-04-26T01:10:47;100693.34;;;11.17;46.29
12949;BME280;6539;49.476;8.484;2023-04-26T01:13:14;100689.44;;;11.14;46.05
12949;BME280;6539;49.476;8.484;2023-04-26T01:15:47;100696.53;;;11.08;46.22
12949;BME280;6539;49.476;8.484;2023-04-26T01:18:14;100695.38;;;11.06;46.58
12949;BME280;6539;49.476;8.484;2023-04-26T01:20:41;100698.53;;;11.01;46.53
12949;BME280;6539;49.476;8.484;2023-04-26T01:23:08;100696.97;;;11.00;46.54
12949;BME280;6539;49.476;8.484;2023-04-26T01:25:34;100698.13;;;11.02;46.63
12949;BME280;6539;49.476;8.484;2023-04-26T01:28:03;100686.78;;;10.97;46.52
12949;BME280;6539;49.476;8.484;2023-04-26T01:30:31;100690.69;;;10.96;46.65
12949;BME280;6539;49.476;8.484;2023-04-26T01:32:57;100689.56;;;10.90;47.08
12949;BME280;6539;49.476;8.484;2023-04-26T01:35:22;100688.38;;;10.91;47.17
12949;BME280;6539;49.476;8.484;2023-04-26T01:37:48;100680.53;;;10.89;47.22
12949;BME280;6539;49.476;8.484;2023-04-26T01:40:14;100691.91;;;10.88;46.95
12949;BME280;6539;49.476;8.484;2023-04-26T01:42:46;100685.28;;;10.82;47.25
12949;BME280;6539;49.476;8.484;2023-04-26T01:45:12;100688.44;;;10.77;47.37
12949;BME280;6539;49.476;8.484;2023-04-26T01:47:38;100685.69;;;10.77;47.64
12949;BME280;6539;49.476;8.484;2023-04-26T01:50:04;100689.63;;;10.72;47.93
12949;BME280;6539;49.476;8.484;2023-04-26T01:52:30;100686.50;;;10.73;47.90
12949;BME280;6539;49.476;8.484;2023-04-26T01:54:56;100690.81;;;10.71;48.36
12949;BME280;6539;49.476;8.484;2023-04-26T01:57:22;100689.66;;;10.68;48.01
12949;BME280;6539;49.476;8.484;2023-04-26T01:59:50;100686.94;;;10.61;48.21
12949;BME280;6539;49.476;8.484;2023-04-26T02:02:18;100680.69;;;10.54;48.43
12949;BME280;6539;49.476;8.484;2023-04-26T02:04:44;100681.47;;;10.51;48.49
12949;BME280;6539;49.476;8.484;2023-04-26T02:07:10;100685.41;;;10.50;48.62
12949;BME280;6539;49.476;8.484;2023-04-26T02:09:38;100683.84;;;10.49;48.49
12949;BME280;6539;49.476;8.484;2023-04-26T02:12:05;100688.94;;;10.47;48.70
12949;BME280;6539;49.476;8.484;2023-04-26T02:14:31;100685.81;;;10.45;48.81
12949;BME280;6539;49.476;8.484;2023-04-26T02:16:56;100683.84;;;10.42;48.86
12949;BME280;6539;49.476;8.484;2023-04-26T02:19:25;100685.44;;;10.43;48.89
12949;BME280;6539;49.476;8.484;2023-04-26T02:21:56;100688.19;;;10.39;48.89
12949;BME280;6539;49.476;8.484;2023-04-26T02:24:25;100686.22;;;10.43;48.77
12949;BME280;6539;49.476;8.484;2023-04-26T02:26:51;100684.28;;;10.37;48.91
12949;BME280;6539;49.476;8.484;2023-04-26T02:29:23;100680.34;;;10.38;49.09
12949;BME280;6539;49.476;8.484;2023-04-26T02:31:53;100688.97;;;10.40;49.12
12949;BME280;6539;49.476;8.484;2023-04-26T02:34:19;100683.84;;;10.42;49.30
12949;BME280;6539;49.476;8.484;2023-04-26T02:36:45;100678.75;;;10.44;49.39
12949;BME280;6539;49.476;8.484;2023-04-26T02:39:13;100686.22;;;10.47;49.06
12949;BME280;6539;49.476;8.484;2023-04-26T02:41:39;100687.78;;;10.44;49.29
12949;BME280;6539;49.476;8.484;2023-04-26T02:44:05;100681.13;;;10.38;49.73
12949;BME280;6539;49.476;8.484;2023-04-26T02:46:33;100686.22;;;10.40;49.58
12949;BME280;6539;49.476;8.484;2023-04-26T02:49:01;100683.91;;;10.35;49.56
12949;BME280;6539;49.476;8.484;2023-04-26T02:51:29;100684.69;;;10.25;50.06
12949;BME280;6539;49.476;8.484;2023-04-26T02:53:55;100691.75;;;10.22;49.98
12949;BME280;6539;49.476;8.484;2023-04-26T02:56:25;100695.28;;;10.23;49.94
12949;BME280;6539;49.476;8.484;2023-04-26T02:58:51;100687.47;;;10.18;50.17
12949;BME280;6539;49.476;8.484;2023-04-26T03:01:19;100689.81;;;10.16;50.56
12949;BME280;6539;49.476;8.484;2023-04-26T03:03:45;100693.75;;;10.11;50.71
12949;BME280;6539;49.476;8.484;2023-04-26T03:06:13;100692.53;;;10.09;50.71
12949;BME280;6539;49.476;8.484;2023-04-26T03:08:41;100693.34;;;10.09;50.49
12949;BME280;6539;49.476;8.484;2023-04-26T03:11:07;100696.50;;;10.11;50.57
12949;BME280;6539;49.476;8.484;2023-04-26T03:13:36;100697.66;;;10.14;50.64
12949;BME280;6539;49.476;8.484;2023-04-26T03:16:07;100692.97;;;10.11;51.39
12949;BME280;6539;49.476;8.484;2023-04-26T03:18:38;100697.25;;;10.08;51.39
12949;BME280;6539;49.476;8.484;2023-04-26T03:21:06;100694.50;;;10.01;51.75
12949;BME280;6539;49.476;8.484;2023-04-26T03:23:32;100696.47;;;9.97;52.09
12949;BME280;6539;49.476;8.484;2023-04-26T03:25:58;100698.44;;;9.86;52.64
12949;BME280;6539;49.476;8.484;2023-04-26T03:28:26;100690.25;;;9.79;52.99
12949;BME280;6539;49.476;8.484;2023-04-26T03:30:52;100698.84;;;9.67;53.19
12949;BME280;6539;49.476;8.484;2023-04-26T03:33:17;100692.56;;;9.56;53.65
12949;BME280;6539;49.476;8.484;2023-04-26T03:35:43;100702.75;;;9.52;53.90
12949;BME280;6539;49.476;8.484;2023-04-26T03:38:09;100702.75;;;9.48;54.19
12949;BME280;6539;49.476;8.484;2023-04-26T03:40:35;100702.75;;;9.48;54.14
12949;BME280;6539;49.476;8.484;2023-04-26T03:43:00;100701.16;;;9.47;54.07
12949;BME280;6539;49.476;8.484;2023-04-26T03:45:29;100705.47;;;9.34;54.71
12949;BME280;6539;49.476;8.484;2023-04-26T03:47:56;100701.97;;;9.34;54.84
12949;BME280;6539;49.476;8.484;2023-04-26T03:50:25;100706.63;;;9.30;54.71
12949;BME280;6539;49.476;8.484;2023-04-26T03:52:53;100701.94;;;9.27;54.50
12949;BME280;6539;49.476;8.484;2023-04-26T03:55:26;100701.16;;;9.23;54.53
12949;BME280;6539;49.476;8.484;2023-04-26T03:57:52;100697.19;;;9.16;54.77
12949;BME280;6539;49.476;8.484;2023-04-26T04:00:21;100702.69;;;9.16;54.81
12949;BME280;6539;49.476;8.484;2023-04-26T04:02:48;100693.69;;;9.19;54.93
12949;BME280;6539;49.476;8.484;2023-04-26T04:05:14;100690.16;;;9.15;54.79
12949;BME280;6539;49.476;8.484;2023-04-26T04:07:43;100687.03;;;9.13;54.95
12949;BME280;6539;49.476;8.484;2023-04-26T04:10:09;100692.50;;;9.13;54.94
12949;BME280;6539;49.476;8.484;2023-04-26T04:12:37;100691.72;;;9.13;54.88
12949;BME280;6539;49.476;8.484;2023-04-26T04:15:03;100691.34;;;9.18;54.74
12949;BME280;6539;49.476;8.484;2023-04-26T04:17:29;100694.84;;;9.15;54.52
12949;BME280;6539;49.476;8.484;2023-04-26T04:19:57;100690.56;;;9.14;54.80
12949;BME280;6539;49.476;8.484;2023-04-26T04:22:25;100695.25;;;9.10;55.07
12949;BME280;6539;49.476;8.484;2023-04-26T04:24:53;100701.88;;;9.05;55.36
12949;BME280;6539;49.476;8.484;2023-04-26T04:27:19;100700.72;;;9.10;54.97
12949;BME280;6539;49.476;8.484;2023-04-26T04:29:48;100699.94;;;9.09;55.19
12949;BME280;6539;49.476;8.484;2023-04-26T04:32:13;100696.41;;;9.12;55.05
12949;BME280;6539;49.476;8.484;2023-04-26T04:34:39;100711.28;;;9.15;54.76
12949;BME280;6539;49.476;8.484;2023-04-26T04:37:06;100705.03;;;9.18;54.85
12949;BME280;6539;49.476;8.484;2023-04-26T04:39:32;100703.06;;;9.15;54.92
12949;BME280;6539;49.476;8.484;2023-04-26T04:42:00;100711.69;;;9.10;55.05
12949;BME280;6539;49.476;8.484;2023-04-26T04:44:28;100715.19;;;9.10;55.44
12949;BME280;6539;49.476;8.484;2023-04-26T04:46:53;100730.84;;;9.17;54.94
12949;BME280;6539;49.476;8.484;2023-04-26T04:49:19;100716.78;;;9.22;54.75
12949;BME280;6539;49.476;8.484;2023-04-26T04:51:47;100720.31;;;9.30;54.61
12949;BME280;6539;49.476;8.484;2023-04-26T04:54:17;100729.75;;;9.36;54.48
12949;BME280;6539;49.476;8.484;2023-04-26T04:56:44;100721.53;;;9.36;54.43
12949;BME280;6539;49.476;8.484;2023-04-26T04:59:13;100717.22;;;9.35;54.50
12949;BME280;6539;49.476;8.484;2023-04-26T05:01:38;100732.09;;;9.41;54.46
12949;BME280;6539;49.476;8.484;2023-04-26T05:04:05;100727.00;;;9.36;54.64
12949;BME280;6539;49.476;8.484;2023-04-26T05:06:33;100734.81;;;9.41;54.57
12949;BME280;6539;49.476;8.484;2023-04-26T05:09:02;100735.59;;;9.45;54.60
12949;BME280;6539;49.476;8.484;2023-04-26T05:11:31;100734.44;;;9.46;54.34
12949;BME280;6539;49.476;8.484;2023-04-26T05:14:00;100724.66;;;9.52;54.18
12949;BME280;6539;49.476;8.484;2023-04-26T05:16:26;100739.94;;;9.56;53.91
12949;BME280;6539;49.476;8.484;2023-04-26T05:18:52;100740.34;;;9.55;54.18
12949;BME280;6539;49.476;8.484;2023-04-26T05:21:18;100738.00;;;9.57;53.79
12949;BME280;6539;49.476;8.484;2023-04-26T05:23:49;100741.91;;;9.59;54.05
12949;BME280;6539;49.476;8.484;2023-04-26T05:26:15;100739.97;;;9.63;53.76
12949;BME280;6539;49.476;8.484;2023-04-26T05:28:43;100750.53;;;9.72;53.77
12949;BME280;6539;49.476;8.484;2023-04-26T05:31:10;100748.19;;;9.77;53.72
12949;BME280;6539;49.476;8.484;2023-04-26T05:33:36;100753.69;;;9.81;53.57
12949;BME280;6539;49.476;8.484;2023-04-26T05:36:07;100751.34;;;9.83;53.49
12949;BME280;6539;49.476;8.484;2023-04-26T05:38:36;100758.78;;;10.00;52.76
12949;BME280;6539;49.476;8.484;2023-04-26T05:41:02;100759.19;;;10.23;52.52
12949;BME280;6539;49.476;8.484;2023-04-26T05:43:31;100756.78;;;10.53;51.29
12949;BME280;6539;49.476;8.484;2023-04-26T05:45:57;100758.16;;;11.07;50.00
12949;BME280;6539;49.476;8.484;2023-04-26T05:48:25;100765.41;;;12.04;47.21
12949;BME280;6539;49.476;8.484;2023-04-26T05:50:51;100758.84;;;13.02;44.63
12949;BME280;6539;49.476;8.484;2023-04-26T05:53:18;100759.25;;;13.61;43.08
12949;BME280;6539;49.476;8.484;2023-04-26T05:55:44;100748.03;;;13.75;42.64
12949;BME280;6539;49.476;8.484;2023-04-26T05:58:10;100756.56;;;13.58;42.79
12949;BME280;6539;49.476;8.484;2023-04-26T06:00:37;100758.06;;;13.36;43.07
12949;BME280;6539;49.476;8.484;2023-04-26T06:03:04;100772.44;;;13.20;43.66
12949;BME280;6539;49.476;8.484;2023-04-26T06:05:32;100778.44;;;13.15;43.64
12949;BME280;6539;49.476;8.484;2023-04-26T06:08:07;100776.06;;;13.14;43.91
12949;BME280;6539;49.476;8.484;2023-04-26T06:10:36;100775.50;;;13.29;43.29
12949;BME280;6539;49.476;8.484;2023-04-26T06:13:02;100778.16;;;13.36;43.50
12949;BME280;6539;49.476;8.484;2023-04-26T06:15:33;100782.72;;;13.50;42.98
12949;BME280;6539;49.476;8.484;2023-04-26T06:17:59;100784.31;;;13.47;43.44
12949;BME280;6539;49.476;8.484;2023-04-26T06:20:25;100787.75;;;13.55;42.87
12949;BME280;6539;49.476;8.484;2023-04-26T06:22:50;100776.09;;;13.70;42.47
12949;BME280;6539;49.476;8.484;2023-04-26T06:25:16;100789.19;;;13.90;42.26
12949;BME280;6539;49.476;8.484;2023-04-26T06:27:42;100788.47;;;14.35;41.68
12949;BME280;6539;49.476;8.484;2023-04-26T06:30:08;100787.97;;;14.64;40.77
12949;BME280;6539;49.476;8.484;2023-04-26T06:32:37;100781.81;;;14.95;39.68
12949;BME280;6539;49.476;8.484;2023-04-26T06:35:03;100786.50;;;14.98;39.61
12949;BME280;6539;49.476;8.484;2023-04-26T06:37:31;100779.94;;;14.69;39.69
12949;BME280;6539;49.476;8.484;2023-04-26T06:39:59;100781.94;;;14.69;40.17
12949;BME280;6539;49.476;8.484;2023-04-26T06:42:33;100781.09;;;14.91;39.46
12949;BME280;6539;49.476;8.484;2023-04-26T06:45:01;100783.88;;;14.91;39.52
12949;BME280;6539;49.476;8.484;2023-04-26T06:47:29;100782.50;;;14.99;39.77
12949;BME280;6539;49.476;8.484;2023-04-26T06:49:59;100784.44;;;15.02;39.57
12949;BME280;6539;49.476;8.484;2023-04-26T06:52:25;100776.34;;;15.11;39.69
12949;BME280;6539;49.476;8.484;2023-04-26T06:54:54;100766.81;;;15.52;39.06
12949;BME280;6539;49.476;8.484;2023-04-26T06:57:19;100780.44;;;15.94;38.48
12949;BME280;6539;49.476;8.484;2023-04-26T06:59:48;100775.28;;;16.57;37.40
12949;BME280;6539;49.476;8.484;2023-04-26T07:02:16;100777.84;;;16.93;36.38
12949;BME280;6539;49.476;8.484;2023-04-26T07:04:42;100773.03;;;17.10;36.09
12949;BME280;6539;49.476;8.484;2023-04-26T07:07:15;100771.63;;;17.43;35.44
12949;BME280;6539;49.476;8.484;2023-04-26T07:09:42;100777.25;;;17.68;34.66
12949;BME280;6539;49.476;8.484;2023-04-26T07:12:15;100780.56;;;17.50;34.56
12949;BME280;6539;49.476;8.484;2023-04-26T07:14:44;100774.56;;;17.65;34.49
12949;BME280;6539;49.476;8.484;2023-04-26T07:17:12;100775.69;;;17.67;34.54
12949;BME280;6539;49.476;8.484;2023-04-26T07:19:37;100778.25;;;17.74;34.68
12949;BME280;6539;49.476;8.484;2023-04-26T07:22:05;100780.00;;;17.93;33.68
12949;BME280;6539;49.476;8.484;2023-04-26T07:24:39;100769.34;;;18.39;33.37
12949;BME280;6539;49.476;8.484;2023-04-26T07:27:04;100774.13;;;18.38;33.32
12949;BME280;6539;49.476;8.484;2023-04-26T07:29:33;100766.75;;;18.57;32.22
12949;BME280;6539;49.476;8.484;2023-04-26T07:32:02;100774.44;;;18.53;32.53
12949;BME280;6539;49.476;8.484;2023-04-26T07:34:31;100771.34;;;18.51;32.26
12949;BME280;6539;49.476;8.484;2023-04-26T07:37:02;100766.53;;;18.04;32.94
12949;BME280;6539;49.476;8.484;2023-04-26T07:39:31;100771.34;;;17.79;33.14
12949;BME280;6539;49.476;8.484;2023-04-26T07:41:57;100758.75;;;18.12;32.96
12949;BME280;6539;49.476;8.484;2023-04-26T07:44:26;100772.59;;;18.24;32.92
12949;BME280;6539;49.476;8.484;2023-04-26T07:46:51;100769.56;;;18.44;32.47
12949;BME280;6539;49.476;8.484;2023-04-26T07:49:23;100766.44;;;18.76;31.95
12949;BME280;6539;49.476;8.484;2023-04-26T07:51:51;100775.19;;;18.87;31.83
12949;BME280;6539;49.476;8.484;2023-04-26T07:54:20;100777.97;;;19.09;30.90
12949;BME280;6539;49.476;8.484;2023-04-26T07:56:45;100769.41;;;18.60;31.45
12949;BME280;6539;49.476;8.484;2023-04-26T07:59:11;100780.53;;;18.13;31.99
12949;BME280;6539;49.476;8.484;2023-04-26T08:01:39;100774.66;;;17.99;32.83
12949;BME280;6539;49.476;8.484;2023-04-26T08:04:10;100770.00;;;18.43;31.38
12949;BME280;6539;49.476;8.484;2023-04-26T08:06:36;100774.44;;;18.06;32.03
12949;BME280;6539;49.476;8.484;2023-04-26T08:09:03;100773.88;;;17.35;32.62
12949;BME280;6539;49.476;8.484;2023-04-26T08:11:29;100774.38;;;17.18;32.79
12949;BME280;6539;49.476;8.484;2023-04-26T08:13:58;100773.84;;;17.23;33.70
12949;BME280;6539;49.476;8.484;2023-04-26T08:16:32;100776.31;;;17.46;33.26
12949;BME280;6539;49.476;8.484;2023-04-26T08:18:58;100777.00;;;17.63;32.93
12949;BME280;6539;49.476;8.484;2023-04-26T08:21:27;100778.03;;;17.15;33.92
12949;BME280;6539;49.476;8.484;2023-04-26T08:23:52;100773.38;;;17.12;34.08
12949;BME280;6539;49.476;8.484;2023-04-26T08:26:18;100776.41;;;16.89;34.06
12949;BME280;6539;49.476;8.484;2023-04-26T08:28:44;100774.91;;;16.71;34.50
12949;BME280;6539;49.476;8.484;2023-04-26T08:31:11;100778.38;;;16.75;34.48
12949;BME280;6539;49.476;8.484;2023-04-26T08:33:36;100771.38;;;16.71;34.30
12949;BME280;6539;49.476;8.484;2023-04-26T08:36:02;100771.00;;;16.98;34.50
12949;BME280;6539;49.476;8.484;2023-04-26T08:38:28;100773.69;;;17.55;33.91
12949;BME280;6539;49.476;8.484;2023-04-26T08:40:58;100762.19;;;18.03;32.76
12949;BME280;6539;49.476;8.484;2023-04-26T08:43:27;100767.59;;;18.45;31.12
12949;BME280;6539;49.476;8.484;2023-04-26T08:45:58;100757.44;;;18.51;31.15
12949;BME280;6539;49.476;8.484;2023-04-26T08:48:26;100750.53;;;18.77;31.00
12949;BME280;6539;49.476;8.484;2023-04-26T08:50:53;100752.91;;;19.09;30.33
12949;BME280;6539;49.476;8.484;2023-04-26T08:53:19;100756.59;;;19.28;29.73
12949;BME280;6539;49.476;8.484;2023-04-26T08:55:50;100750.34;;;19.45;29.23
12949;BME280;6539;49.476;8.484;2023-04-26T08:58:18;100750.44;;;19.63;28.90
12949;BME280;6539;49.476;8.484;2023-04-26T09:00:45;100752.44;;;19.63;28.59
12949;BME280;6539;49.476;8.484;2023-04-26T09:03:11;100753.59;;;19.44;28.55
12949;BME280;6539;49.476;8.484;2023-04-26T09:05:40;100741.59;;;19.25;28.23
12949;BME280;6539;49.476;8.484;2023-04-26T09:08:15;100742.41;;;19.04;28.34
12949;BME280;6539;49.476;8.484;2023-04-26T09:10:42;100738.44;;;18.71;28.24
12949;BME280;6539;49.476;8.484;2023-04-26T09:13:12;100746.66;;;18.40;28.51
12949;BME280;6539;49.476;8.484;2023-04-26T09:15:44;100736.28;;;18.19;28.41
12949;BME280;6539;49.476;8.484;2023-04-26T09:18:21;100737.78;;;17.86;28.87
12949;BME280;6539;49.476;8.484;2023-04-26T09:21:05;100746.81;;;17.52;29.34
12949;BME280;6539;49.476;8.484;2023-04-26T09:23:34;100742.53;;;17.35;29.88
12949;BME280;6539;49.476;8.484;2023-04-26T09:26:20;100742.09;;;17.24;30.88
12949;BME280;6539;49.476;8.484;2023-04-26T09:28:47;100736.19;;;17.22;30.79
12949;BME280;6539;49.476;8.484;2023-04-26T09:31:42;100737.00;;;17.35;30.07
12949;BME280;6539;49.476;8.484;2023-04-26T09:34:11;100745.53;;;17.40;29.54
12949;BME280;6539;49.476;8.484;2023-04-26T09:39:14;100737.34;;;17.62;29.03
12949;BME280;6539;49.476;8.484;2023-04-26T09:41:46;100739.59;;;17.67;29.18
12949;BME280;6539;49.476;8.484;2023-04-26T09:44:22;100752.22;;;17.56;29.19
12949;BME280;6539;49.476;8.484;2023-04-26T09:47:10;100744.81;;;17.65;28.70
12949;BME280;6539;49.476;8.484;2023-04-26T09:49:48;100735.03;;;17.73;29.08
12949;BME280;6539;49.476;8.484;2023-04-26T09:52:19;100738.56;;;17.86;29.13
12949;BME280;6539;49.476;8.484;2023-04-26T09:54:51;100739.44;;;17.96;29.14
12949;BME280;6539;49.476;8.484;2023-04-26T09:57:19;100734.00;;;17.92;29.51
12949;BME280;6539;49.476;8.484;2023-04-26T09:59:52;100728.38;;;17.58;29.02
12949;BME280;6539;49.476;8.484;2023-04-26T10:02:23;100740.22;;;17.21;30.20
12949;BME280;6539;49.476;8.484;2023-04-26T10:04:56;100739.25;;;16.86;30.12
12949;BME280;6539;49.476;8.484;2023-04-26T10:07:27;100725.44;;;16.70;30.94
12949;BME280;6539;49.476;8.484;2023-04-26T10:09:53;100725.31;;;16.73;31.42
12949;BME280;6539;49.476;8.484;2023-04-26T10:12:20;100725.41;;;16.57;30.91
12949;BME280;6539;49.476;8.484;2023-04-26T10:14:47;100724.81;;;16.34;31.37
12949;BME280;6539;49.476;8.484;2023-04-26T10:17:13;100728.34;;;16.50;32.46
12949;BME280;6539;49.476;8.484;2023-04-26T10:19:42;100723.81;;;16.56;30.74
12949;BME280;6539;49.476;8.484;2023-04-26T10:22:22;100724.97;;;16.43;31.06
12949;BME280;6539;49.476;8.484;2023-04-26T10:24:52;100717.53;;;16.56;30.32
12949;BME280;6539;49.476;8.484;2023-04-26T10:30:09;100716.88;;;17.06;30.37
12949;BME280;6539;49.476;8.484;2023-04-26T10:35:26;100715.66;;;17.07;30.61
12949;BME280;6539;49.476;8.484;2023-04-26T10:45:45;100711.78;;;17.17;27.87
12949;BME280;6539;49.476;8.484;2023-04-26T10:59:06;100690.81;;;17.16;27.89
12949;BME280;6539;49.476;8.484;2023-04-26T11:01:32;100685.50;;;17.46;27.85
12949;BME280;6539;49.476;8.484;2023-04-26T11:06:24;100676.75;;;17.95;27.02
12949;BME280;6539;49.476;8.484;2023-04-26T11:08:59;100673.75;;;18.02;26.63
12949;BME280;6539;49.476;8.484;2023-04-26T11:11:25;100667.66;;;17.94;27.46
12949;BME280;6539;49.476;8.484;2023-04-26T11:14:00;100663.75;;;18.04;28.32
12949;BME280;6539;49.476;8.484;2023-04-26T11:16:28;100674.28;;;18.31;27.27
12949;BME280;6539;49.476;8.484;2023-04-26T11:18:54;100667.13;;;18.21;26.80
12949;BME280;6539;49.476;8.484;2023-04-26T11:21:20;100655.41;;;18.04;26.72
12949;BME280;6539;49.476;8.484;2023-04-26T11:23:54;100651.75;;;17.95;27.46
12949;BME280;6539;49.476;8.484;2023-04-26T11:26:21;100657.50;;;18.13;27.33
12949;BME280;6539;49.476;8.484;2023-04-26T11:28:51;100652.81;;;18.44;26.77
12949;BME280;6539;49.476;8.484;2023-04-26T11:31:18;100648.97;;;18.72;26.81
12949;BME280;6539;49.476;8.484;2023-04-26T11:33:43;100638.44;;;18.89;26.78
12949;BME280;6539;49.476;8.484;2023-04-26T11:36:09;100646.34;;;18.99;26.13
12949;BME280;6539;49.476;8.484;2023-04-26T11:38:37;100639.94;;;19.21;26.24
12949;BME280;6539;49.476;8.484;2023-04-26T11:41:05;100641.16;;;19.50;26.33
12949;BME280;6539;49.476;8.484;2023-04-26T11:43:38;100641.22;;;19.87;25.52
12949;BME280;6539;49.476;8.484;2023-04-26T11:46:08;100634.56;;;19.93;25.56
12949;BME280;6539;49.476;8.484;2023-04-26T11:48:35;100635.94;;;19.70;25.21
12949;BME280;6539;49.476;8.484;2023-04-26T11:51:03;100632.97;;;19.56;24.71
12949;BME280;6539;49.476;8.484;2023-04-26T11:53:40;100638.88;;;19.27;25.41
12949;BME280;6539;49.476;8.484;2023-04-26T11:56:17;100635.78;;;19.25;25.58
12949;BME280;6539;49.476;8.484;2023-04-26T11:58:52;100639.91;;;19.12;26.12
12949;BME280;6539;49.476;8.484;2023-04-26T12:01:26;100627.25;;;18.80;25.72
12949;BME280;6539;49.476;8.484;2023-04-26T12:03:58;100628.50;;;18.01;26.45
12949;BME280;6539;49.476;8.484;2023-04-26T12:06:45;100621.19;;;17.95;27.43
12949;BME280;6539;49.476;8.484;2023-04-26T12:09:13;100620.50;;;18.03;27.17
12949;BME280;6539;49.476;8.484;2023-04-26T12:11:47;100615.34;;;18.14;27.06
12949;BME280;6539;49.476;8.484;2023-04-26T12:14:17;100622.66;;;18.43;26.86
12949;BME280;6539;49.476;8.484;2023-04-26T12:16:45;100625.28;;;18.59;26.06
12949;BME280;6539;49.476;8.484;2023-04-26T12:19:13;100623.84;;;18.33;25.97
12949;BME280;6539;49.476;8.484;2023-04-26T12:21:43;100625.75;;;18.23;26.32
12949;BME280;6539;49.476;8.484;2023-04-26T12:24:31;100623.38;;;18.34;27.27
12949;BME280;6539;49.476;8.484;2023-04-26T12:27:05;100613.94;;;18.32;26.44
12949;BME280;6539;49.476;8.484;2023-04-26T12:29:32;100619.66;;;18.50;26.56
12949;BME280;6539;49.476;8.484;2023-04-26T12:31:58;100612.69;;;18.76;26.00
12949;BME280;6539;49.476;8.484;2023-04-26T12:34:24;100614.09;;;18.50;26.01
12949;BME280;6539;49.476;8.484;2023-04-26T12:36:53;100613.94;;;18.53;26.60
12949;BME280;6539;49.476;8.484;2023-04-26T12:39:22;100613.09;;;18.44;25.91
12949;BME280;6539;49.476;8.484;2023-04-26T12:41:48;100609.41;;;18.25;26.36
12949;BME280;6539;49.476;8.484;2023-04-26T12:44:16;100617.34;;;18.36;26.58
12949;BME280;6539;49.476;8.484;2023-04-26T12:46:44;100611.31;;;18.50;26.46
12949;BME280;6539;49.476;8.484;2023-04-26T12:49:10;100606.44;;;18.63;26.53
12949;BME280;6539;49.476;8.484;2023-04-26T12:51:41;100609.00;;;18.79;25.91
12949;BME280;6539;49.476;8.484;2023-04-26T12:54:09;100614.38;;;19.04;25.66
12949;BME280;6539;49.476;8.484;2023-04-26T12:56:37;100610.44;;;19.32;25.26
12949;BME280;6539;49.476;8.484;2023-04-26T12:59:10;100607.72;;;19.50;26.01
12949;BME280;6539;49.476;8.484;2023-04-26T13:01:38;100604.03;;;19.53;25.42
12949;BME280;6539;49.476;8.484;2023-04-26T13:04:04;100603.88;;;19.66;25.28
12949;BME280;6539;49.476;8.484;2023-04-26T13:06:30;100608.84;;;19.80;25.00
12949;BME280;6539;49.476;8.484;2023-04-26T13:08:56;100607.63;;;19.81;24.91
12949;BME280;6539;49.476;8.484;2023-04-26T13:11:25;100617.06;;;19.84;24.86
12949;BME280;6539;49.476;8.484;2023-04-26T13:13:50;100609.16;;;19.73;24.91
12949;BME280;6539;49.476;8.484;2023-04-26T13:16:16;100607.75;;;19.59;25.00
12949;BME280;6539;49.476;8.484;2023-04-26T13:18:45;100604.03;;;19.53;25.18
12949;BME280;6539;49.476;8.484;2023-04-26T13:21:13;100599.41;;;19.59;25.18
12949;BME280;6539;49.476;8.484;2023-04-26T13:23:39;100608.69;;;19.65;25.85
12949;BME280;6539;49.476;8.484;2023-04-26T13:26:06;100600.59;;;19.40;25.25
12949;BME280;6539;49.476;8.484;2023-04-26T13:28:35;100602.50;;;19.22;25.58
12949;BME280;6539;49.476;8.484;2023-04-26T13:31:01;100592.13;;;18.73;25.71
12949;BME280;6539;49.476;8.484;2023-04-26T13:33:27;100602.94;;;18.06;26.39
12949;BME280;6539;49.476;8.484;2023-04-26T13:35:53;100597.22;;;17.88;27.43
12949;BME280;6539;49.476;8.484;2023-04-26T13:38:21;100592.22;;;17.96;27.39